Terminal Aerodrome Forecast
Issued by NWS

Home | Current Version | Previous Version | Text Only | Print | Product List | Glossary On
Versions: 1 2 3 4 5 6 7 8 9 10 11 12 13 14 15 16 17 18 19 20 21 22 23
000
FTUS43 KDVN 221000 AAA
TAFBRL
TAF AMD
KBRL 221024Z 2210/2306 18005KT 5SM BR BKN035
      TEMPO 2210/2214 2SM TSRA BR BKN035CB OVC050
     FM221500 23006KT P6SM BKN060
     FM230100 VRB02KT P6SM BKN120=

USA.gov is the U.S. government's official web portal to all federal, state and local government web resources and services.